Terminal Aerodrome Forecast
Issued by NWS

Home | Current Version | Previous Version | Text Only | Print | Product List | Glossary On
Versions: 1 2 3 4 5 6 7 8 9 10 11 12 13 14 15 16
152
FTUS46 KMFR 230530
TAFOTH
TAF
KOTH 230530Z 2306/2406 VRB03KT P6SM SCT050
     FM230800 14006KT P6SM SCT050
     FM231700 16008KT P6SM SCT040 OVC100
     FM240000 16009KT P6SM OVC040
     FM240400 16010KT P6SM -RA SCT020 OVC040=

USA.gov is the U.S. government's official web portal to all federal, state and local government web resources and services.